createdAt,value
2022-10-28T00:02:33.917Z,23.27
2022-10-28T00:05:37.446Z,19.63
2022-10-28T00:08:42.083Z,21.33
2022-10-28T00:11:45.249Z,29.42
2022-10-28T00:14:49.163Z,26.75
2022-10-28T00:17:52.572Z,23.63
2022-10-28T00:21:02.317Z,27.80
2022-10-28T00:24:07.197Z,37.25
2022-10-28T00:27:11.068Z,34.83
2022-10-28T00:30:14.589Z,36.10
2022-10-28T00:33:18.071Z,36.33
2022-10-28T00:36:25.638Z,27.27
2022-10-28T00:39:28.929Z,23.13
2022-10-28T00:42:32.239Z,29.77
2022-10-28T00:45:36.252Z,31.08
2022-10-28T00:48:41.836Z,34.30
2022-10-28T00:51:49.722Z,35.20
2022-10-28T00:54:54.610Z,37.33
2022-10-28T00:57:59.857Z,43.13
2022-10-28T01:01:03.453Z,43.22
2022-10-28T01:04:09.272Z,45.88
2022-10-28T01:07:12.649Z,42.35
2022-10-28T01:10:16.746Z,43.17
2022-10-28T01:13:38.498Z,41.65
2022-10-28T01:17:31.773Z,39.80
2022-10-28T01:20:53.663Z,42.90
2022-10-28T01:24:05.467Z,39.50
2022-10-28T01:27:20.117Z,40.88
2022-10-28T01:30:29.942Z,42.30
2022-10-28T01:34:13.806Z,44.15
2022-10-28T01:37:34.085Z,42.92
2022-10-28T01:41:09.762Z,41.20
2022-10-28T01:44:30.343Z,38.60
2022-10-28T01:47:59.166Z,36.10
2022-10-28T01:51:25.782Z,35.15
2022-10-28T01:54:33.309Z,33.10
2022-10-28T01:57:39.934Z,35.15
2022-10-28T02:00:45.056Z,32.45
2022-10-28T02:03:49.805Z,39.25
2022-10-28T02:06:55.857Z,33.80
2022-10-28T02:10:17.073Z,30.02
2022-10-28T02:13:23.962Z,34.47
2022-10-28T02:16:30.156Z,31.85
2022-10-28T02:19:47.530Z,31.45
2022-10-28T02:26:17.672Z,32.08
2022-10-28T02:29:36.596Z,31.45
2022-10-28T02:32:43.489Z,31.25
2022-10-28T02:35:56.598Z,32.60
2022-10-28T02:39:02.005Z,32.35
2022-10-28T02:42:31.800Z,31.45
2022-10-28T02:45:49.554Z,30.88
2022-10-28T02:48:57.032Z,32.17
2022-10-28T02:52:04.033Z,26.85
2022-10-28T02:55:08.135Z,30.92
2022-10-28T02:58:12.030Z,28.20
2022-10-28T03:01:15.737Z,25.80
2022-10-28T03:04:19.217Z,27.25
2022-10-28T03:07:22.102Z,24.70
2022-10-28T03:10:25.547Z,23.77
2022-10-28T03:13:28.381Z,24.23
2022-10-28T03:16:31.727Z,24.08
2022-10-28T03:19:35.336Z,25.77
2022-10-28T03:22:38.220Z,26.48
2022-10-28T03:25:41.077Z,26.70
2022-10-28T03:28:46.858Z,27.83
2022-10-28T03:31:49.676Z,26.80
2022-10-28T03:34:53.430Z,28.52
2022-10-28T03:37:56.517Z,27.70
2022-10-28T03:40:59.320Z,26.67
2022-10-28T03:44:04.830Z,29.55
2022-10-28T03:47:07.636Z,32.88
2022-10-28T03:50:10.965Z,30.75
2022-10-28T03:53:14.164Z,30.25
2022-10-28T03:56:17.480Z,31.25
2022-10-28T03:59:21.596Z,32.25
2022-10-28T04:02:25.342Z,30.35
2022-10-28T04:05:28.882Z,31.05
2022-10-28T04:08:31.714Z,29.63
2022-10-28T04:11:34.889Z,29.80
2022-10-28T04:14:37.762Z,28.73
2022-10-28T04:17:41.277Z,28.98
2022-10-28T04:20:45.399Z,28.15
2022-10-28T04:23:49.180Z,28.02
2022-10-28T04:26:52.711Z,28.75
2022-10-28T04:29:55.850Z,29.30
2022-10-28T04:32:59.408Z,28.23
2022-10-28T04:36:02.671Z,29.63
2022-10-28T04:39:05.756Z,27.90
2022-10-28T04:42:08.932Z,27.98
2022-10-28T04:45:12.559Z,29.23
2022-10-28T04:48:16.536Z,30.35
2022-10-28T04:51:20.007Z,30.42
2022-10-28T04:54:23.651Z,26.33
2022-10-28T04:57:27.446Z,25.55
2022-10-28T05:00:32.204Z,25.27
2022-10-28T05:03:36.589Z,24.23
2022-10-28T05:06:40.350Z,25.88
2022-10-28T05:09:43.910Z,24.83
2022-10-28T05:12:47.656Z,25.65
2022-10-28T05:15:52.270Z,25.27
2022-10-28T05:18:56.586Z,22.60
2022-10-28T05:22:00.142Z,24.75
2022-10-28T05:25:05.279Z,23.83
2022-10-28T05:28:08.475Z,23.40
2022-10-28T05:31:12.413Z,24.55
2022-10-28T05:34:16.260Z,24.83
2022-10-28T05:37:21.610Z,23.83
2022-10-28T05:40:25.787Z,23.80
2022-10-28T05:43:30.477Z,23.15
2022-10-28T05:46:35.237Z,24.17
2022-10-28T05:49:40.529Z,24.10
2022-10-28T05:52:49.641Z,23.05
2022-10-28T05:55:57.220Z,22.88
2022-10-28T05:59:02.480Z,23.40
2022-10-28T06:02:07.317Z,23.45
2022-10-28T06:05:14.098Z,24.02
2022-10-28T06:08:20.154Z,23.63
2022-10-28T06:11:24.995Z,23.60
2022-10-28T06:14:30.544Z,25.08
2022-10-28T06:17:36.818Z,23.50
2022-10-28T06:20:42.162Z,24.65
2022-10-28T06:23:48.244Z,26.77
2022-10-28T06:26:53.265Z,25.98
2022-10-28T06:29:58.581Z,26.77
2022-10-28T06:33:02.944Z,27.02
2022-10-28T06:36:08.781Z,27.38
2022-10-28T06:39:14.412Z,26.48
2022-10-28T06:42:19.598Z,26.73
2022-10-28T06:45:24.332Z,24.23
2022-10-28T06:48:32.014Z,24.95
2022-10-28T06:51:36.757Z,26.88
2022-10-28T06:54:44.163Z,27.27
2022-10-28T07:01:49.226Z,25.25
2022-10-28T07:04:58.354Z,24.70
2022-10-28T07:08:07.998Z,23.80
2022-10-28T07:14:36.200Z,23.13
2022-10-28T07:17:42.869Z,23.73
2022-10-28T07:20:50.596Z,22.52
2022-10-28T07:23:58.317Z,22.58
2022-10-28T07:27:06.098Z,23.38
2022-10-28T07:30:12.105Z,23.02
2022-10-28T07:33:15.708Z,23.67
2022-10-28T07:36:20.755Z,23.33
2022-10-28T07:39:23.962Z,22.70
2022-10-28T07:42:27.448Z,22.92
2022-10-28T07:45:30.612Z,23.20
2022-10-28T07:48:35.892Z,22.40
2022-10-28T07:51:40.265Z,22.23
2022-10-28T07:54:45.318Z,22.05
2022-10-28T07:57:49.243Z,20.40
2022-10-28T08:00:53.512Z,20.73
2022-10-28T08:03:59.704Z,22.03
2022-10-28T08:07:03.206Z,20.30
2022-10-28T08:10:08.308Z,21.23
2022-10-28T08:13:12.614Z,22.70
2022-10-28T08:16:17.138Z,26.63
2022-10-28T08:19:21.228Z,23.75
2022-10-28T08:22:25.270Z,24.13
2022-10-28T08:25:28.963Z,40.35
2022-10-28T08:28:33.055Z,30.30
2022-10-28T08:31:38.240Z,26.60
2022-10-28T08:34:43.626Z,28.48
2022-10-28T08:37:53.368Z,50.95
2022-10-28T08:41:25.145Z,21.38
2022-10-28T08:44:35.888Z,25.58
2022-10-28T08:51:13.893Z,53.88
2022-10-28T08:54:37.777Z,46.05
2022-10-28T08:58:06.345Z,41.65
2022-10-28T09:01:20.836Z,35.58
2022-10-28T09:04:44.805Z,27.70
2022-10-28T09:07:48.892Z,26.33
2022-10-28T09:14:54.278Z,25.50
2022-10-28T09:18:19.089Z,18.58
2022-10-28T09:21:34.967Z,19.40
2022-10-28T09:24:55.692Z,19.48
2022-10-28T09:28:40.339Z,18.65
2022-10-28T09:39:01.278Z,20.10
2022-10-28T09:42:05.758Z,19.67
2022-10-28T09:45:21.832Z,24.05
2022-10-28T09:48:47.503Z,21.75
2022-10-28T09:52:16.082Z,22.10
2022-10-28T09:55:24.094Z,22.98
2022-10-28T09:58:27.928Z,24.02
2022-10-28T10:01:37.328Z,23.17
2022-10-28T10:04:41.127Z,23.20
2022-10-28T10:07:57.403Z,20.83
2022-10-28T10:11:08.119Z,20.75
2022-10-28T10:14:32.097Z,18.02
2022-10-28T10:17:49.123Z,18.80
2022-10-28T10:21:03.178Z,17.80
2022-10-28T10:24:34.229Z,16.52
2022-10-28T10:27:53.033Z,13.27
2022-10-28T10:30:59.809Z,10.43
2022-10-28T10:34:05.379Z,12.90
2022-10-28T10:37:22.685Z,10.77
2022-10-28T10:40:34.450Z,10.93
2022-10-28T10:43:38.121Z,9.93
2022-10-28T10:46:42.798Z,11.07
2022-10-28T10:49:45.739Z,10.00
2022-10-28T10:52:52.295Z,12.13
2022-10-28T10:56:01.274Z,10.77
2022-10-28T10:59:25.221Z,9.40
2022-10-28T11:02:37.073Z,17.88
2022-10-28T11:05:55.149Z,13.23
2022-10-28T11:09:38.814Z,19.05
2022-10-28T11:12:53.535Z,26.27
2022-10-28T11:16:27.363Z,21.83
2022-10-28T11:19:32.611Z,24.63
2022-10-28T11:22:51.424Z,26.67
2022-10-28T11:25:59.607Z,23.25
2022-10-28T11:29:14.666Z,40.20
2022-10-28T11:32:21.250Z,27.02
2022-10-28T11:35:45.923Z,25.13
2022-10-28T11:39:16.860Z,24.63
2022-10-28T11:42:58.610Z,19.42
2022-10-28T11:46:21.349Z,25.85
2022-10-28T11:50:03.312Z,26.33
2022-10-28T11:53:44.755Z,30.65
2022-10-28T11:57:02.704Z,32.47
2022-10-28T12:00:32.201Z,31.15
2022-10-28T12:04:13.474Z,37.13
2022-10-28T12:08:00.944Z,20.42
2022-10-28T12:11:26.683Z,31.88
2022-10-28T12:15:02.560Z,27.60
2022-10-28T12:18:19.528Z,25.20
2022-10-28T12:24:40.502Z,24.90
2022-10-28T12:27:47.461Z,24.88
2022-10-28T12:30:54.496Z,22.48
2022-10-28T12:34:01.422Z,25.90
2022-10-28T12:38:04.112Z,22.90
2022-10-28T12:41:25.351Z,15.43
2022-10-28T12:44:32.499Z,20.92
2022-10-28T12:47:49.318Z,45.97
2022-10-28T12:51:10.792Z,28.27
2022-10-28T12:54:23.119Z,28.90
2022-10-28T12:57:28.392Z,36.72
2022-10-28T13:00:37.414Z,33.83
2022-10-28T13:03:41.250Z,33.55
2022-10-28T13:07:14.723Z,29.65
2022-10-28T13:10:26.867Z,24.88
2022-10-28T13:13:39.587Z,24.63
2022-10-28T13:17:12.331Z,28.40
2022-10-28T13:21:09.654Z,32.25
2022-10-28T13:24:19.979Z,36.58
2022-10-28T13:27:26.073Z,41.10
2022-10-28T13:30:32.651Z,31.10
2022-10-28T13:33:38.880Z,46.75
2022-10-28T13:36:45.643Z,27.70
2022-10-28T13:39:49.628Z,29.13
2022-10-28T13:42:54.405Z,43.58
2022-10-28T13:45:59.701Z,49.17
2022-10-28T13:49:25.887Z,46.15
2022-10-28T13:52:31.106Z,44.30
2022-10-28T13:55:43.966Z,33.80
2022-10-28T13:59:00.762Z,30.80
2022-10-28T14:02:33.777Z,54.28
2022-10-28T14:05:39.149Z,41.80
2022-10-28T14:08:43.357Z,37.30
2022-10-28T14:11:48.097Z,20.92
2022-10-28T14:15:13.167Z,37.15
2022-10-28T14:21:56.448Z,36.70
2022-10-28T14:25:25.002Z,43.05
2022-10-28T14:28:29.467Z,35.03
2022-10-28T14:31:41.742Z,34.80
2022-10-28T14:34:47.437Z,34.10
2022-10-28T14:38:03.976Z,27.77
2022-10-28T14:41:46.859Z,30.33
2022-10-28T14:45:03.539Z,26.90
2022-10-28T14:48:15.850Z,27.88
2022-10-28T14:51:24.853Z,28.15
2022-10-28T14:54:45.589Z,35.88
2022-10-28T14:57:49.808Z,36.17
2022-10-28T15:01:19.473Z,33.92
2022-10-28T15:04:27.409Z,37.22
2022-10-28T15:07:37.952Z,30.92
2022-10-28T15:10:50.587Z,31.63
2022-10-28T15:13:55.098Z,35.05
2022-10-28T15:17:01.491Z,31.75
2022-10-28T15:20:30.116Z,33.67
2022-10-28T15:23:39.638Z,36.40
2022-10-28T15:26:46.197Z,35.17
2022-10-28T15:29:53.904Z,51.90
2022-10-28T15:33:25.672Z,45.40
2022-10-28T15:36:36.766Z,42.47
2022-10-28T15:39:40.875Z,39.78
2022-10-28T15:43:02.308Z,43.42
2022-10-28T15:46:26.180Z,38.85
2022-10-28T15:49:37.260Z,42.55
2022-10-28T15:52:45.075Z,35.60
2022-10-28T15:56:07.893Z,32.75
2022-10-28T15:59:27.039Z,41.05
2022-10-28T16:02:41.573Z,50.05
2022-10-28T16:05:46.703Z,48.95
2022-10-28T16:09:15.308Z,45.15
2022-10-28T16:12:22.556Z,38.10
2022-10-28T16:15:26.014Z,37.42
2022-10-28T16:18:32.698Z,35.95
2022-10-28T16:21:40.576Z,31.05
2022-10-28T16:24:44.403Z,29.90
2022-10-28T16:27:48.376Z,30.90
2022-10-28T16:30:55.195Z,22.38
2022-10-28T16:34:00.294Z,26.60
2022-10-28T16:37:04.089Z,28.42
2022-10-28T16:40:24.914Z,30.02
2022-10-28T16:43:32.490Z,35.17
2022-10-28T16:46:36.252Z,28.40
2022-10-28T16:49:40.055Z,27.90
2022-10-28T16:52:43.856Z,29.17
2022-10-28T16:55:48.118Z,26.08
2022-10-28T16:58:53.429Z,28.02
2022-10-28T17:01:59.923Z,26.60
2022-10-28T17:05:07.855Z,28.58
2022-10-28T17:08:12.589Z,25.05
2022-10-28T17:11:16.002Z,22.90
2022-10-28T17:14:19.219Z,28.00
2022-10-28T17:17:23.158Z,29.25
2022-10-28T17:20:26.832Z,30.92
2022-10-28T17:23:31.248Z,30.98
2022-10-28T17:26:37.874Z,30.70
2022-10-28T17:29:41.509Z,30.43
2022-10-28T17:32:46.147Z,23.85
2022-10-28T17:35:49.711Z,30.35
2022-10-28T17:38:53.139Z,27.40
2022-10-28T17:41:56.198Z,25.90
2022-10-28T17:44:59.708Z,22.40
2022-10-28T17:48:03.166Z,24.65
2022-10-28T17:51:06.950Z,24.90
2022-10-28T17:54:11.234Z,22.88
2022-10-28T17:57:14.171Z,21.02
2022-10-28T18:00:17.561Z,20.20
2022-10-28T18:03:21.197Z,50.60
2022-10-28T18:06:25.096Z,57.88
2022-10-28T18:09:32.160Z,45.10
2022-10-28T18:12:35.666Z,53.03
2022-10-28T18:15:39.269Z,53.97
2022-10-28T18:18:43.378Z,43.83
2022-10-28T18:21:47.194Z,39.65
2022-10-28T18:24:51.560Z,38.13
2022-10-28T18:27:54.595Z,39.13
2022-10-28T18:31:03.261Z,30.73
2022-10-28T18:34:07.453Z,28.42
2022-10-28T18:37:12.655Z,27.70
2022-10-28T18:40:15.795Z,30.48
2022-10-28T18:43:20.357Z,31.38
2022-10-28T18:46:24.486Z,41.33
2022-10-28T18:49:28.335Z,40.80
2022-10-28T18:52:31.863Z,31.27
2022-10-28T18:55:35.654Z,29.25
2022-10-28T18:58:38.838Z,22.00
2022-10-28T19:01:47.398Z,18.77
2022-10-28T19:04:50.725Z,20.88
2022-10-28T19:07:54.742Z,28.58
2022-10-28T19:10:58.899Z,24.17
2022-10-28T19:14:05.068Z,31.83
2022-10-28T19:17:09.572Z,30.63
2022-10-28T19:20:12.944Z,27.17
2022-10-28T19:23:15.893Z,24.90
2022-10-28T19:26:21.306Z,26.33
2022-10-28T19:29:24.286Z,26.25
2022-10-28T19:32:28.634Z,27.92
2022-10-28T19:35:34.054Z,28.65
2022-10-28T19:38:39.292Z,29.40
2022-10-28T19:41:42.252Z,29.05
2022-10-28T19:44:45.531Z,31.58
2022-10-28T19:47:48.488Z,29.85
2022-10-28T19:50:52.613Z,31.85
2022-10-28T19:54:03.305Z,34.85
2022-10-28T19:57:07.233Z,36.17
2022-10-28T20:00:10.900Z,39.17
2022-10-28T20:03:14.616Z,41.10
2022-10-28T20:06:19.937Z,39.28
2022-10-28T20:09:28.642Z,34.35
2022-10-28T20:12:32.691Z,29.55
2022-10-28T20:15:36.500Z,33.33
2022-10-28T20:18:40.786Z,36.33
2022-10-28T20:21:45.414Z,36.35
2022-10-28T20:24:48.464Z,32.72
2022-10-28T20:27:52.895Z,31.45
2022-10-28T20:31:00.667Z,32.42
2022-10-28T20:34:06.537Z,28.38
2022-10-28T20:37:10.027Z,28.73
2022-10-28T20:40:13.490Z,28.67
2022-10-28T20:43:18.110Z,26.70
2022-10-28T20:46:24.042Z,27.70
2022-10-28T20:49:27.825Z,31.83
2022-10-28T20:52:32.353Z,30.73
2022-10-28T20:55:36.617Z,29.15
2022-10-28T20:58:41.236Z,27.77
2022-10-28T21:01:45.168Z,27.55
2022-10-28T21:04:49.512Z,25.92
2022-10-28T21:07:53.593Z,27.48
2022-10-28T21:10:57.377Z,30.33
2022-10-28T21:14:02.230Z,27.35
2022-10-28T21:17:05.787Z,29.63
2022-10-28T21:20:09.832Z,22.67
2022-10-28T21:23:14.020Z,25.38
2022-10-28T21:26:17.624Z,23.60
2022-10-28T21:29:21.779Z,24.58
2022-10-28T21:32:25.102Z,21.73
2022-10-28T21:35:29.030Z,23.38
2022-10-28T21:38:32.601Z,22.98
2022-10-28T21:41:37.082Z,22.08
2022-10-28T21:44:40.777Z,21.30
2022-10-28T21:47:44.960Z,20.88
2022-10-28T21:50:56.099Z,22.88
2022-10-28T21:54:00.609Z,27.40
2022-10-28T21:57:04.789Z,22.83
2022-10-28T22:00:09.429Z,19.58
2022-10-28T22:03:19.275Z,18.23
2022-10-28T22:06:24.027Z,14.50
2022-10-28T22:09:28.074Z,14.07
2022-10-28T22:12:32.938Z,18.35
2022-10-28T22:15:37.016Z,18.38
2022-10-28T22:18:41.955Z,18.88
2022-10-28T22:21:46.176Z,18.42
2022-10-28T22:24:50.525Z,20.92
2022-10-28T22:27:54.853Z,17.80
2022-10-28T22:31:07.291Z,22.27
2022-10-28T22:34:11.838Z,23.67
2022-10-28T22:37:16.423Z,20.73
2022-10-28T22:40:20.395Z,24.55
2022-10-28T22:43:25.252Z,21.73
2022-10-28T22:46:31.393Z,18.17
2022-10-28T22:49:35.756Z,17.95
2022-10-28T22:52:39.616Z,16.15
2022-10-28T22:55:43.605Z,17.83
2022-10-28T22:58:48.192Z,19.10
2022-10-28T23:01:53.006Z,18.77
2022-10-28T23:04:56.917Z,20.35
2022-10-28T23:08:02.558Z,17.48
2022-10-28T23:11:07.409Z,20.52
2022-10-28T23:14:11.254Z,22.23
2022-10-28T23:17:15.175Z,20.67
2022-10-28T23:20:25.434Z,17.02
2022-10-28T23:23:29.808Z,18.83
2022-10-28T23:26:33.564Z,21.40
2022-10-28T23:29:37.610Z,21.60
2022-10-28T23:32:41.535Z,22.60
2022-10-28T23:35:45.445Z,25.45
2022-10-28T23:38:49.186Z,25.45
2022-10-28T23:41:53.205Z,27.65
2022-10-28T23:44:56.869Z,35.10
2022-10-28T23:48:00.534Z,36.50
2022-10-28T23:51:04.363Z,32.72
2022-10-28T23:54:12.313Z,29.77
2022-10-28T23:57:15.757Z,26.08
